Time;durP1;ratioP1;P1;durP2;ratioP2;P2;SDS_P1;SDS_P2;PMS_P1;PMS_P2;Temp;Humidity;BMP_temperature;BMP_pressure;BME280_temperature;BME280_humidity;BME280_pressure;Samples;Min_cycle;Max_cycle;Signal;HPM_P1;HPM_P2
2021/06/15 00:00:32;;;;;;;;;10.00;9.67;;;;;-147.17;100.00;59696.56;5035193;27;50961;-58
2021/06/15 00:02:58;;;;;;;;;9.67;9.67;;;;;-147.17;100.00;59696.56;5034376;28;51724;-59
2021/06/15 00:05:23;;;;;;;;;9.33;9.33;;;;;-147.17;100.00;59696.56;5027048;28;51009;-59
2021/06/15 00:07:48;;;;;;;;;12.33;11.00;;;;;-147.17;100.00;59696.56;5061249;28;51097;-58
2021/06/15 00:10:21;;;;;;;;;9.67;9.00;;;;;-147.17;100.00;59696.56;5033766;28;51399;-59
2021/06/15 00:12:46;;;;;;;;;10.67;10.33;;;;;-147.17;100.00;59696.56;5032679;28;53436;-59
2021/06/15 00:15:13;;;;;;;;;11.00;11.00;;;;;-147.17;100.00;59696.56;5034338;28;51089;-59
2021/06/15 00:17:39;;;;;;;;;12.67;12.00;;;;;-147.17;100.00;59696.56;5033270;28;51322;-58
2021/06/15 00:20:06;;;;;;;;;10.00;9.00;;;;;-147.17;100.00;59696.56;5033683;28;51086;-58
2021/06/15 00:22:31;;;;;;;;;10.00;9.00;;;;;-147.17;100.00;59696.56;5032284;28;52915;-59
2021/06/15 00:24:57;;;;;;;;;9.67;9.67;;;;;-147.17;100.00;59696.56;5034366;28;50893;-59
2021/06/15 00:27:24;;;;;;;;;11.33;11.00;;;;;-147.17;100.00;59696.56;5034424;28;51002;-59
2021/06/15 00:29:49;;;;;;;;;10.75;9.00;;;;;-147.17;100.00;59696.56;5034525;28;51268;-59
2021/06/15 00:32:14;;;;;;;;;9.00;9.00;;;;;-147.17;100.00;59696.56;5033791;28;51554;-58
2021/06/15 00:34:40;;;;;;;;;7.00;7.00;;;;;-147.17;100.00;59696.56;5034351;28;51102;-59
2021/06/15 00:37:05;;;;;;;;;8.33;8.33;;;;;-147.17;100.00;59696.56;5033011;28;51081;-59
2021/06/15 00:39:30;;;;;;;;;8.33;7.33;;;;;-147.17;100.00;59696.56;5025351;28;51235;-59
2021/06/15 00:41:56;;;;;;;;;11.00;11.00;;;;;-147.17;100.00;59696.56;5032858;28;52817;-59
2021/06/15 00:44:21;;;;;;;;;9.00;9.00;;;;;-147.17;100.00;59696.56;5034067;28;51386;-58
2021/06/15 00:46:47;;;;;;;;;9.33;9.33;;;;;-147.17;100.00;59696.56;5034056;28;51063;-58
2021/06/15 00:49:15;;;;;;;;;14.00;12.25;;;;;-147.17;100.00;59696.56;5034271;28;51325;-58
2021/06/15 00:51:40;;;;;;;;;10.75;10.75;;;;;-147.17;100.00;59696.56;5033735;28;52060;-58
2021/06/15 00:54:06;;;;;;;;;12.25;11.25;;;;;-147.17;100.00;59696.56;5025858;28;50976;-58
2021/06/15 00:56:32;;;;;;;;;13.00;12.25;;;;;-147.17;100.00;59696.56;5028253;28;50975;-57
2021/06/15 00:58:57;;;;;;;;;12.50;12.25;;;;;-147.17;100.00;59696.56;5034199;28;51320;-59
2021/06/15 01:01:23;;;;;;;;;12.00;12.00;;;;;-147.17;100.00;59696.56;5033267;28;50874;-58
2021/06/15 01:03:49;;;;;;;;;11.25;11.25;;;;;-147.17;100.00;59696.56;5033719;28;51118;-58
2021/06/15 01:06:32;;;;;;;;;12.00;11.33;;;;;-147.17;100.00;59696.56;5033604;28;51084;-59
2021/06/15 01:09:05;;;;;;;;;11.25;11.25;;;;;-147.17;100.00;59696.56;5034055;28;51015;-57
2021/06/15 01:11:56;;;;;;;;;11.50;11.00;;;;;-147.17;100.00;59696.56;5029689;28;52110;-57
2021/06/15 01:14:40;;;;;;;;;9.33;9.33;;;;;-147.17;100.00;59696.56;5031210;28;51231;-57
2021/06/15 01:17:15;;;;;;;;;10.00;9.00;;;;;-147.17;100.00;59696.56;5033247;28;51070;-57
2021/06/15 01:19:59;;;;;;;;;10.67;10.00;;;;;-147.17;100.00;59696.56;5033461;28;51051;-58
2021/06/15 01:23:01;;;;;;;;;12.00;11.00;;;;;-147.17;100.00;59696.56;5033224;28;51093;-58
2021/06/15 01:25:32;;;;;;;;;12.50;12.00;;;;;-147.17;100.00;59696.56;5033143;28;50888;-58
2021/06/15 01:28:22;;;;;;;;;11.00;11.00;;;;;-147.17;100.00;59696.56;5029288;28;51150;-58
2021/06/15 01:31:08;;;;;;;;;11.50;11.50;;;;;-147.17;100.00;59696.56;5033492;28;51098;-58
2021/06/15 01:33:38;;;;;;;;;11.67;11.00;;;;;-147.17;100.00;59696.56;5032110;28;51122;-57
2021/06/15 01:36:07;;;;;;;;;13.00;11.75;;;;;-147.17;100.00;59696.56;5033088;28;50937;-58
2021/06/15 01:38:40;;;;;;;;;12.00;11.75;;;;;-147.17;100.00;59696.56;5033055;28;51069;-58
2021/06/15 01:41:09;;;;;;;;;10.00;9.75;;;;;-147.17;100.00;59696.56;5033568;28;50923;-57
2021/06/15 01:43:43;;;;;;;;;11.50;11.25;;;;;-147.17;100.00;59696.56;5024909;28;51173;-58
2021/06/15 01:46:11;;;;;;;;;14.50;13.25;;;;;-147.17;100.00;59696.56;5032612;28;51055;-57
2021/06/15 01:48:47;;;;;;;;;12.00;11.67;;;;;-147.17;100.00;59696.56;5032815;28;51041;-58
2021/06/15 01:51:14;;;;;;;;;11.25;10.75;;;;;-147.17;100.00;59696.56;5032022;28;50988;-58
2021/06/15 01:53:44;;;;;;;;;12.25;12.00;;;;;-147.17;100.00;59696.56;5032524;28;51769;-60
2021/06/15 01:56:14;;;;;;;;;13.00;13.00;;;;;-147.17;100.00;59696.56;5032762;28;51118;-58
2021/06/15 01:58:44;;;;;;;;;12.00;11.33;;;;;-147.17;100.00;59696.56;5031225;28;50984;-58
2021/06/15 02:01:10;;;;;;;;;13.25;12.75;;;;;-147.17;100.00;59696.56;5031353;28;50989;-58
2021/06/15 02:03:36;;;;;;;;;14.00;11.00;;;;;-147.17;100.00;59696.56;5032653;28;52088;-58
2021/06/15 02:06:04;;;;;;;;;11.25;10.50;;;;;-147.17;100.00;59696.56;5032596;28;51155;-58
2021/06/15 02:08:34;;;;;;;;;13.00;13.00;;;;;-147.17;100.00;59696.56;5032808;28;50922;-58
2021/06/15 02:11:01;;;;;;;;;14.00;13.75;;;;;-147.17;100.00;59696.56;5033044;28;51027;-58
2021/06/15 02:13:30;;;;;;;;;13.25;13.00;;;;;-147.17;100.00;59696.56;5032586;28;50996;-58
2021/06/15 02:15:59;;;;;;;;;11.75;11.75;;;;;-147.17;100.00;59696.56;5030983;28;51141;-59
2021/06/15 02:18:27;;;;;;;;;15.75;13.50;;;;;-147.17;100.00;59696.56;5028100;28;51217;-58
2021/06/15 02:20:55;;;;;;;;;12.25;12.25;;;;;-147.17;100.00;59696.56;5019150;28;51129;-58
2021/06/15 02:23:23;;;;;;;;;14.50;13.00;;;;;-147.17;100.00;59696.56;5032659;28;52019;-58
2021/06/15 02:25:54;;;;;;;;;13.75;13.00;;;;;-147.17;100.00;59696.56;5019113;28;51280;-58
2021/06/15 02:28:20;;;;;;;;;12.75;12.75;;;;;-147.17;100.00;59696.56;5032328;28;51026;-58
2021/06/15 02:30:45;;;;;;;;;12.25;12.25;;;;;-147.17;100.00;59696.56;5021002;28;51147;-58
2021/06/15 02:33:14;;;;;;;;;13.00;12.50;;;;;-147.17;100.00;59696.56;5031984;28;50959;-57
2021/06/15 02:35:47;;;;;;;;;12.50;12.50;;;;;-147.17;100.00;59696.56;5026508;28;51179;-56
2021/06/15 02:38:19;;;;;;;;;12.00;12.00;;;;;-147.17;100.00;59696.56;5023556;28;50956;-56
2021/06/15 02:40:47;;;;;;;;;13.00;12.50;;;;;-147.17;100.00;59696.56;5028884;28;51075;-56
2021/06/15 02:43:15;;;;;;;;;15.50;14.75;;;;;-147.17;100.00;59696.56;5032703;28;52052;-56
2021/06/15 02:45:41;;;;;;;;;13.00;12.25;;;;;-147.17;100.00;59696.56;5028150;28;51278;-57
2021/06/15 02:48:08;;;;;;;;;12.50;11.50;;;;;-147.17;100.00;59696.56;5035534;28;50958;-58
2021/06/15 02:50:38;;;;;;;;;16.25;14.50;;;;;-147.17;100.00;59696.56;5030576;28;51250;-57
2021/06/15 02:53:08;;;;;;;;;13.75;13.25;;;;;-147.17;100.00;59696.56;5034353;28;51820;-58
2021/06/15 02:55:37;;;;;;;;;11.00;11.00;;;;;-147.17;100.00;59696.56;5032171;28;51196;-57
2021/06/15 02:58:03;;;;;;;;;12.75;12.25;;;;;-147.17;100.00;59696.56;5035540;28;51278;-58
2021/06/15 03:00:29;;;;;;;;;11.33;11.00;;;;;-147.17;100.00;59696.56;5029251;28;51779;-57
2021/06/15 03:02:55;;;;;;;;;11.67;11.67;;;;;-147.17;100.00;59696.56;5034403;28;51821;-58
2021/06/15 03:05:20;;;;;;;;;13.00;13.00;;;;;-147.17;100.00;59696.56;5031967;28;51048;-59
2021/06/15 03:07:50;;;;;;;;;12.25;12.25;;;;;-147.17;100.00;59696.56;5035604;28;51149;-58
2021/06/15 03:10:17;;;;;;;;;13.75;13.50;;;;;-147.17;100.00;59696.56;5026558;28;51288;-58
2021/06/15 03:12:51;;;;;;;;;12.00;12.00;;;;;-147.17;100.00;59696.56;5030268;28;52017;-58
2021/06/15 03:15:22;;;;;;;;;11.33;11.33;;;;;-147.17;100.00;59696.56;5025151;28;51065;-57
2021/06/15 03:17:55;;;;;;;;;13.00;12.67;;;;;-147.17;100.00;59696.56;5032863;28;50981;-57
2021/06/15 03:20:25;;;;;;;;;13.00;12.00;;;;;-147.17;100.00;59696.56;5024719;28;51261;-60
2021/06/15 03:22:58;;;;;;;;;11.67;11.00;;;;;-147.17;100.00;59696.56;5033721;28;51935;-58
2021/06/15 03:25:32;;;;;;;;;12.67;12.67;;;;;-147.17;100.00;59696.56;5032408;28;51125;-57
2021/06/15 03:28:12;;;;;;;;;12.33;12.33;;;;;-147.17;100.00;59696.56;5033683;28;51290;-58
2021/06/15 03:30:40;;;;;;;;;14.00;13.50;;;;;-147.17;100.00;59696.56;5031701;28;51145;-58
2021/06/15 03:33:08;;;;;;;;;14.25;14.00;;;;;-147.17;100.00;59696.56;5034263;28;52024;-57
2021/06/15 03:35:39;;;;;;;;;14.33;13.33;;;;;-147.17;100.00;59696.56;5031362;28;51121;-57
2021/06/15 03:38:07;;;;;;;;;11.00;10.33;;;;;-147.17;100.00;59696.56;5035058;28;51040;-58
2021/06/15 03:40:36;;;;;;;;;13.67;13.00;;;;;-147.17;100.00;59696.56;5027395;28;51173;-58
2021/06/15 03:43:02;;;;;;;;;12.33;12.33;;;;;-147.17;100.00;59696.56;5034638;28;51023;-57
2021/06/15 03:45:37;;;;;;;;;10.67;10.00;;;;;-147.17;100.00;59696.56;5030974;28;51203;-57
2021/06/15 03:48:05;;;;;;;;;14.50;14.50;;;;;-147.17;100.00;59696.56;5034777;28;51013;-58
2021/06/15 03:50:33;;;;;;;;;12.33;12.33;;;;;-147.17;100.00;59696.56;5028677;28;51169;-56
2021/06/15 03:52:59;;;;;;;;;13.33;12.33;;;;;-147.17;100.00;59696.56;5060234;28;52031;-58
2021/06/15 03:55:29;;;;;;;;;12.67;12.00;;;;;-147.17;100.00;59696.56;5030841;28;51035;-58
2021/06/15 03:57:57;;;;;;;;;12.00;12.00;;;;;-147.17;100.00;59696.56;5034715;28;51027;-58
2021/06/15 04:00:24;;;;;;;;;12.00;11.33;;;;;-147.17;100.00;59696.56;5025954;28;51399;-58
2021/06/15 04:02:53;;;;;;;;;12.33;11.33;;;;;-147.17;100.00;59696.56;5033778;28;51872;-59
2021/06/15 04:05:22;;;;;;;;;10.67;10.67;;;;;-147.17;100.00;59696.56;5030921;28;51156;-60
2021/06/15 04:07:50;;;;;;;;;12.00;12.00;;;;;-147.17;100.00;59696.56;5034495;28;51070;-59
2021/06/15 04:10:16;;;;;;;;;13.00;13.00;;;;;-147.17;100.00;59696.56;5031953;28;51204;-58
2021/06/15 04:12:43;;;;;;;;;11.00;11.00;;;;;-147.17;100.00;59696.56;5032518;28;53048;-57
2021/06/15 04:15:10;;;;;;;;;11.00;11.00;;;;;-147.17;100.00;59696.56;5025373;28;51218;-57
2021/06/15 04:17:39;;;;;;;;;13.67;12.33;;;;;-147.17;100.00;59696.56;5029032;28;51119;-55
2021/06/15 04:20:06;;;;;;;;;11.25;10.25;;;;;-147.17;100.00;59696.56;5025836;28;51196;-57
2021/06/15 04:22:35;;;;;;;;;12.33;12.33;;;;;-147.17;100.00;59696.56;5029173;28;52094;-56
2021/06/15 04:25:10;;;;;;;;;12.00;12.00;;;;;-147.17;100.00;59696.56;5026131;28;51224;-56
2021/06/15 04:27:36;;;;;;;;;13.33;13.00;;;;;-147.17;100.00;59696.56;5031238;28;50935;-57
2021/06/15 04:30:05;;;;;;;;;13.00;12.33;;;;;-147.17;100.00;59696.56;5029059;28;51353;-57
2021/06/15 04:32:41;;;;;;;;;11.67;11.67;;;;;-147.17;100.00;59696.56;5065587;28;51733;-57
2021/06/15 04:35:09;;;;;;;;;13.33;13.33;;;;;-147.17;100.00;59696.56;5034133;28;51261;-56
2021/06/15 04:37:37;;;;;;;;;13.00;11.00;;;;;-147.17;100.00;59696.56;5033787;28;51197;-56
2021/06/15 04:40:11;;;;;;;;;13.00;13.00;;;;;-147.17;100.00;59696.56;5028519;28;51235;-56
2021/06/15 04:42:46;;;;;;;;;16.33;15.67;;;;;-147.17;100.00;59696.56;5021042;28;51920;-57
2021/06/15 04:45:12;;;;;;;;;11.67;11.33;;;;;-147.17;100.00;59696.56;5030589;28;51147;-57
2021/06/15 04:47:45;;;;;;;;;13.00;12.00;;;;;-147.17;100.00;59696.56;5033721;28;51143;-57
2021/06/15 04:50:25;;;;;;;;;10.00;10.00;;;;;-147.17;100.00;59696.56;5029410;28;51022;-56
2021/06/15 04:52:53;;;;;;;;;9.67;9.00;;;;;-147.17;100.00;59696.56;5032888;28;51857;-55
2021/06/15 04:55:26;;;;;;;;;14.67;14.33;;;;;-147.17;100.00;59696.56;5045332;28;51054;-57
2021/06/15 04:57:54;;;;;;;;;15.00;14.00;;;;;-147.17;100.00;59696.56;5034083;28;51045;-58
2021/06/15 05:00:25;;;;;;;;;11.33;11.33;;;;;-147.17;100.00;59696.56;5029180;28;51414;-57
2021/06/15 05:02:51;;;;;;;;;15.00;15.00;;;;;-147.17;100.00;59696.56;5032821;28;51505;-57
2021/06/15 05:05:19;;;;;;;;;14.00;14.00;;;;;-147.17;100.00;59696.56;5028656;28;51098;-57
2021/06/15 05:07:45;;;;;;;;;18.00;16.00;;;;;-147.17;100.00;59696.56;5031239;28;51122;-58
2021/06/15 05:10:11;;;;;;;;;14.50;14.00;;;;;-147.17;100.00;59696.56;5029764;28;51324;-57
2021/06/15 05:12:44;;;;;;;;;14.75;14.25;;;;;-147.17;100.00;59696.56;5032783;28;51267;-57
2021/06/15 05:15:11;;;;;;;;;14.25;14.25;;;;;-147.17;100.00;59696.56;5027261;28;51191;-56
2021/06/15 05:17:40;;;;;;;;;15.25;14.25;;;;;-147.17;100.00;59696.56;5024436;28;50993;-58
2021/06/15 05:20:07;;;;;;;;;13.25;13.00;;;;;-147.17;100.00;59696.56;5029497;28;51300;-58
2021/06/15 05:22:38;;;;;;;;;13.75;12.75;;;;;-147.17;100.00;59696.56;5032477;28;53311;-55
2021/06/15 05:25:03;;;;;;;;;14.33;14.00;;;;;-147.17;100.00;59696.56;5026734;28;51261;-56
2021/06/15 05:27:32;;;;;;;;;15.00;13.00;;;;;-147.17;100.00;59696.56;5031645;28;51027;-56
2021/06/15 05:29:57;;;;;;;;;12.00;12.00;;;;;-147.17;100.00;59696.56;5029237;28;53208;-56
2021/06/15 05:32:23;;;;;;;;;11.75;11.50;;;;;-147.17;100.00;59696.56;5031879;28;51929;-56
2021/06/15 05:34:49;;;;;;;;;14.67;14.67;;;;;-147.17;100.00;59696.56;5029208;28;51161;-56
2021/06/15 05:37:15;;;;;;;;;15.00;15.00;;;;;-147.17;100.00;59696.56;5032945;28;51174;-55
2021/06/15 05:39:41;;;;;;;;;16.00;15.25;;;;;-147.17;100.00;59696.56;5027918;28;51103;-57
2021/06/15 05:42:07;;;;;;;;;15.00;15.00;;;;;-147.17;100.00;59696.56;5024689;28;51022;-58
2021/06/15 05:44:36;;;;;;;;;14.25;14.00;;;;;-147.17;100.00;59696.56;5027327;28;51358;-58
2021/06/15 05:47:02;;;;;;;;;17.00;17.00;;;;;-147.17;100.00;59696.56;5023021;28;50993;-56
2021/06/15 05:49:28;;;;;;;;;16.25;15.50;;;;;-147.17;100.00;59696.56;5029188;28;51428;-57
2021/06/15 05:52:03;;;;;;;;;15.00;13.67;;;;;-147.17;100.00;59696.56;5023163;28;52867;-56
2021/06/15 05:54:29;;;;;;;;;13.67;13.67;;;;;-147.17;100.00;59696.56;5024609;28;51279;-58
2021/06/15 05:56:55;;;;;;;;;15.33;13.67;;;;;-147.17;100.00;59696.56;5023848;28;51055;-57
2021/06/15 05:59:20;;;;;;;;;14.75;14.25;;;;;-147.17;100.00;59696.56;5028906;28;51161;-57
2021/06/15 06:01:46;;;;;;;;;15.00;15.00;;;;;-147.17;100.00;59696.56;5029907;28;51592;-57
2021/06/15 06:04:13;;;;;;;;;13.00;12.33;;;;;-147.17;100.00;59696.56;5025869;28;51066;-57
2021/06/15 06:09:22;;;;;;;;;14.00;13.00;;;;;-147.17;100.00;59696.56;5028331;28;51213;-57
2021/06/15 06:11:47;;;;;;;;;11.25;10.25;;;;;-147.17;100.00;59696.56;5031996;28;51098;-57
2021/06/15 06:14:13;;;;;;;;;15.67;15.00;;;;;-147.17;100.00;59696.56;5029753;28;51126;-57
2021/06/15 06:16:42;;;;;;;;;13.75;13.75;;;;;-147.17;100.00;59696.56;5020141;28;50983;-58
2021/06/15 06:19:12;;;;;;;;;13.75;13.75;;;;;-147.17;100.00;59696.56;5029287;28;51343;-58
2021/06/15 06:21:38;;;;;;;;;13.67;13.00;;;;;-147.17;100.00;59696.56;5019623;28;53461;-58
2021/06/15 06:24:06;;;;;;;;;11.33;11.33;;;;;-147.17;100.00;59696.56;5028727;28;51116;-58
2021/06/15 06:26:32;;;;;;;;;14.00;14.00;;;;;-147.17;100.00;59696.56;5020503;28;51238;-59
2021/06/15 06:28:57;;;;;;;;;15.00;14.33;;;;;-147.17;100.00;59696.56;5030199;28;50900;-58
2021/06/15 06:31:22;;;;;;;;;12.00;11.00;;;;;-147.17;100.00;59696.56;5030367;28;52141;-57
2021/06/15 06:33:48;;;;;;;;;15.50;13.75;;;;;-147.17;100.00;59696.56;5030171;28;51289;-57
2021/06/15 06:36:15;;;;;;;;;11.33;10.33;;;;;-147.17;100.00;59696.56;5030644;28;51110;-57
2021/06/15 06:38:40;;;;;;;;;14.67;14.67;;;;;-147.17;100.00;59696.56;5031382;28;50998;-57
2021/06/15 06:41:06;;;;;;;;;14.00;14.00;;;;;-147.17;100.00;59696.56;5023845;28;51769;-57
2021/06/15 06:43:32;;;;;;;;;15.25;14.25;;;;;-147.17;100.00;59696.56;5031595;28;51248;-57
2021/06/15 06:45:58;;;;;;;;;15.75;15.50;;;;;-147.17;100.00;59696.56;5028643;28;51339;-58
2021/06/15 06:48:23;;;;;;;;;14.00;13.50;;;;;-147.17;100.00;59696.56;5031700;28;50884;-58
2021/06/15 06:50:50;;;;;;;;;16.25;14.50;;;;;-147.17;100.00;59696.56;5027769;28;51025;-58
2021/06/15 06:53:15;;;;;;;;;13.50;13.50;;;;;-147.17;100.00;59696.56;5031036;28;50960;-58
2021/06/15 06:55:41;;;;;;;;;14.25;14.25;;;;;-147.17;100.00;59696.56;5023502;28;51159;-58
2021/06/15 06:58:06;;;;;;;;;16.00;16.00;;;;;-147.17;100.00;59696.56;5017131;28;51307;-58
2021/06/15 07:00:33;;;;;;;;;13.00;13.00;;;;;-147.17;100.00;59696.56;5026495;28;52973;-59
2021/06/15 07:02:58;;;;;;;;;14.25;14.00;;;;;-147.17;100.00;59696.56;5030444;28;51349;-59
2021/06/15 07:05:24;;;;;;;;;15.00;14.25;;;;;-147.17;100.00;59696.56;5026784;28;51118;-58
2021/06/15 07:07:51;;;;;;;;;15.75;15.00;;;;;-147.17;100.00;59696.56;5031048;28;51027;-58
2021/06/15 07:10:17;;;;;;;;;13.75;13.50;;;;;-147.17;100.00;59696.56;5020336;28;51101;-58
2021/06/15 07:12:42;;;;;;;;;14.75;14.75;;;;;-147.17;100.00;59696.56;5025627;28;51037;-58
2021/06/15 07:15:09;;;;;;;;;15.00;14.50;;;;;-147.17;100.00;59696.56;5021499;28;51057;-58
2021/06/15 07:17:34;;;;;;;;;17.50;16.50;;;;;-147.17;100.00;59696.56;5025322;28;50935;-58
2021/06/15 07:20:00;;;;;;;;;17.00;17.00;;;;;-147.17;100.00;59696.56;5022209;28;51275;-58
2021/06/15 07:22:25;;;;;;;;;15.75;15.75;;;;;-147.17;100.00;59696.56;5025242;28;51196;-58
2021/06/15 07:24:50;;;;;;;;;18.50;18.00;;;;;-147.17;100.00;59696.56;5025724;28;50998;-58
2021/06/15 07:27:16;;;;;;;;;15.50;15.00;;;;;-147.17;100.00;59696.56;5025328;28;51141;-57
2021/06/15 07:29:41;;;;;;;;;15.00;14.00;;;;;-147.17;100.00;59696.56;5024778;28;51568;-58
2021/06/15 07:32:07;;;;;;;;;15.00;14.50;;;;;-147.17;100.00;59696.56;5019116;28;51278;-58
2021/06/15 07:34:32;;;;;;;;;14.00;13.75;;;;;-147.17;100.00;59696.56;5029994;28;51189;-57
2021/06/15 07:36:58;;;;;;;;;20.00;19.75;;;;;-147.17;100.00;59696.56;5032420;28;51090;-58
2021/06/15 07:39:23;;;;;;;;;16.75;15.50;;;;;-147.17;100.00;59696.56;5030084;28;51777;-58
2021/06/15 07:41:49;;;;;;;;;15.50;15.50;;;;;-147.17;100.00;59696.56;5023260;28;51112;-58
2021/06/15 07:44:14;;;;;;;;;13.50;13.50;;;;;-147.17;100.00;59696.56;5025390;28;51236;-58
2021/06/15 07:46:40;;;;;;;;;19.50;19.00;;;;;-147.17;100.00;59696.56;5031765;28;51115;-58
2021/06/15 07:49:05;;;;;;;;;18.25;16.50;;;;;-147.17;100.00;59696.56;5032534;28;51731;-58
2021/06/15 07:51:31;;;;;;;;;17.25;16.75;;;;;-147.17;100.00;59696.56;5032506;28;51027;-59
2021/06/15 07:53:56;;;;;;;;;15.50;15.50;;;;;-147.17;100.00;59696.56;5031453;28;52143;-59
2021/06/15 07:56:23;;;;;;;;;15.00;15.00;;;;;-147.17;100.00;59696.56;5028505;28;51225;-59
2021/06/15 07:58:49;;;;;;;;;15.75;15.75;;;;;-147.17;100.00;59696.56;5032333;28;51133;-58
2021/06/15 08:01:14;;;;;;;;;16.00;16.00;;;;;-147.17;100.00;59696.56;5033649;28;50957;-59
2021/06/15 08:03:40;;;;;;;;;22.25;20.25;;;;;-147.17;100.00;59696.56;5033302;28;50970;-59
2021/06/15 08:06:05;;;;;;;;;15.75;15.75;;;;;-147.17;100.00;59696.56;5028132;28;50968;-58
2021/06/15 08:08:31;;;;;;;;;18.00;18.00;;;;;-147.17;100.00;59696.56;5034256;28;52171;-58
2021/06/15 08:10:56;;;;;;;;;17.00;17.00;;;;;-147.17;100.00;59696.56;5032850;28;51063;-59
2021/06/15 08:13:22;;;;;;;;;14.25;14.25;;;;;-147.17;100.00;59696.56;5034041;28;50943;-58
2021/06/15 08:15:49;;;;;;;;;19.75;19.75;;;;;-147.17;100.00;59696.56;5028335;28;51260;-58
2021/06/15 08:18:15;;;;;;;;;17.00;16.25;;;;;-147.17;100.00;59696.56;5034005;28;51732;-59
2021/06/15 08:20:43;;;;;;;;;19.25;19.00;;;;;-147.17;100.00;59696.56;5032395;28;51044;-58
2021/06/15 08:23:08;;;;;;;;;18.25;17.75;;;;;-147.17;100.00;59696.56;5033831;28;51028;-58
2021/06/15 08:25:33;;;;;;;;;17.75;16.25;;;;;-147.17;100.00;59696.56;5031048;28;50968;-58
2021/06/15 08:27:59;;;;;;;;;16.75;16.25;;;;;-147.17;100.00;59696.56;5033476;28;51220;-59
2021/06/15 08:30:24;;;;;;;;;13.50;12.50;;;;;-147.17;100.00;59696.56;5031643;28;50922;-58
2021/06/15 08:32:50;;;;;;;;;17.00;17.00;;;;;-147.17;100.00;59696.56;5033530;28;50902;-59
2021/06/15 08:35:15;;;;;;;;;17.00;17.00;;;;;-147.17;100.00;59696.56;5032313;28;50860;-59
2021/06/15 08:37:41;;;;;;;;;16.25;16.00;;;;;-147.17;100.00;59696.56;5033393;28;51785;-59
2021/06/15 08:40:07;;;;;;;;;16.00;16.00;;;;;-147.17;100.00;59696.56;5022122;28;50985;-59
2021/06/15 08:42:36;;;;;;;;;14.75;14.75;;;;;-147.17;100.00;59696.56;5032695;28;51042;-58
2021/06/15 08:45:01;;;;;;;;;17.50;16.00;;;;;-147.17;100.00;59696.56;5033212;28;51012;-59
2021/06/15 08:47:27;;;;;;;;;16.25;16.25;;;;;-147.17;100.00;59696.56;5045966;28;52143;-59
2021/06/15 08:49:52;;;;;;;;;16.25;15.50;;;;;-147.17;100.00;59696.56;5029437;28;51136;-59
2021/06/15 08:52:18;;;;;;;;;17.50;17.00;;;;;-147.17;100.00;59696.56;5024146;28;51211;-59
2021/06/15 08:54:44;;;;;;;;;17.00;16.25;;;;;-147.17;100.00;59696.56;5028601;28;51113;-59
2021/06/15 08:57:10;;;;;;;;;18.75;18.25;;;;;-147.17;100.00;59696.56;5032461;28;51928;-59
2021/06/15 08:59:36;;;;;;;;;16.00;16.00;;;;;-147.17;100.00;59696.56;5032356;28;50943;-58
2021/06/15 09:02:05;;;;;;;;;11.25;11.25;;;;;-147.17;100.00;59696.56;5029343;28;51097;-59
2021/06/15 09:04:32;;;;;;;;;16.75;16.00;;;;;-147.17;100.00;59696.56;5031379;28;51281;-59
2021/06/15 09:06:58;;;;;;;;;15.75;15.25;;;;;-147.17;100.00;59696.56;5025001;28;52116;-59
2021/06/15 09:09:46;;;;;;;;;14.50;14.50;;;;;-147.17;100.00;59696.56;5025439;28;51188;-59
2021/06/15 09:12:14;;;;;;;;;14.00;14.00;;;;;-147.17;100.00;59696.56;5026491;28;51126;-59
2021/06/15 09:14:53;;;;;;;;;13.50;13.50;;;;;-147.17;100.00;59696.56;5033029;28;51163;-58
2021/06/15 09:17:28;;;;;;;;;15.00;15.00;;;;;-147.17;100.00;59696.56;5029801;28;51335;-60
2021/06/15 09:19:55;;;;;;;;;15.50;15.00;;;;;-147.17;100.00;59696.56;5032772;28;51125;-58
2021/06/15 09:22:31;;;;;;;;;13.75;13.25;;;;;-147.17;100.00;59696.56;5032613;28;50923;-60
2021/06/15 09:24:57;;;;;;;;;13.25;12.50;;;;;-147.17;100.00;59696.56;5032710;28;51178;-59
2021/06/15 09:27:34;;;;;;;;;13.75;13.75;;;;;-147.17;100.00;59696.56;5032245;28;51059;-59
2021/06/15 09:30:06;;;;;;;;;11.25;11.00;;;;;-147.17;100.00;59696.56;5032214;28;51256;-58
2021/06/15 09:32:38;;;;;;;;;15.50;14.25;;;;;-147.17;100.00;59696.56;5025424;28;51086;-60
2021/06/15 09:35:08;;;;;;;;;12.25;12.00;;;;;-147.17;100.00;59696.56;5027319;28;51127;-58
2021/06/15 09:37:47;;;;;;;;;11.50;11.50;;;;;-147.17;100.00;59696.56;5018601;28;51155;-59
2021/06/15 09:40:29;;;;;;;;;14.00;13.25;;;;;-147.17;100.00;59696.56;5032280;28;51007;-59
2021/06/15 09:43:04;;;;;;;;;14.25;14.00;;;;;-147.17;100.00;59696.56;5030984;28;51051;-59
2021/06/15 09:45:38;;;;;;;;;12.00;12.00;;;;;-147.17;100.00;59696.56;5032819;28;50968;-59
2021/06/15 09:48:31;;;;;;;;;14.50;12.00;;;;;-147.17;100.00;59696.56;5021721;28;51944;-61
2021/06/15 09:51:01;;;;;;;;;11.75;11.75;;;;;-147.17;100.00;59696.56;5031437;28;50930;-60
2021/06/15 09:53:34;;;;;;;;;14.00;13.75;;;;;-147.17;100.00;59696.56;5030970;28;51038;-60
2021/06/15 09:56:11;;;;;;;;;9.25;9.25;;;;;-147.17;100.00;59696.56;5031878;28;51099;-60
2021/06/15 09:58:58;;;;;;;;;10.50;10.50;;;;;-147.17;100.00;59696.56;5031199;28;52096;-60
2021/06/15 10:01:29;;;;;;;;;12.00;12.00;;;;;-147.17;100.00;59696.56;5024324;28;51126;-61
2021/06/15 10:04:20;;;;;;;;;11.75;11.25;;;;;-147.17;100.00;59696.56;5031678;28;51027;-61
2021/06/15 10:06:46;;;;;;;;;11.00;10.25;;;;;-147.17;100.00;59696.56;5032649;28;50979;-61
2021/06/15 10:09:13;;;;;;;;;12.25;11.75;;;;;-147.17;100.00;59696.56;5029954;28;53182;-61
2021/06/15 10:11:40;;;;;;;;;10.50;10.50;;;;;-147.17;100.00;59696.56;5026153;28;51097;-60
2021/06/15 10:14:05;;;;;;;;;10.00;9.50;;;;;-147.17;100.00;59696.56;5031711;28;51014;-60
2021/06/15 10:16:32;;;;;;;;;11.75;11.75;;;;;-147.17;100.00;59696.56;5031822;28;51108;-60
2021/06/15 10:19:01;;;;;;;;;11.25;10.50;;;;;-147.17;100.00;59696.56;5031397;28;51891;-61
2021/06/15 10:21:27;;;;;;;;;11.00;11.00;;;;;-147.17;100.00;59696.56;5031135;28;51201;-60
2021/06/15 10:23:52;;;;;;;;;12.00;11.00;;;;;-147.17;100.00;59696.56;5030188;28;51054;-60
2021/06/15 10:26:18;;;;;;;;;9.75;9.25;;;;;-147.17;100.00;59696.56;5023732;28;50844;-60
2021/06/15 10:28:44;;;;;;;;;11.25;11.25;;;;;-147.17;100.00;59696.56;5030216;28;51980;-60
2021/06/15 10:31:09;;;;;;;;;11.00;11.00;;;;;-147.17;100.00;59696.56;5029364;28;51144;-60
2021/06/15 10:33:43;;;;;;;;;20.50;20.50;;;;;-147.17;100.00;59696.56;5018806;28;51191;-61
2021/06/15 10:36:09;;;;;;;;;9.00;8.75;;;;;-147.17;100.00;59696.56;5031265;28;51410;-60
2021/06/15 10:38:35;;;;;;;;;8.00;8.00;;;;;-147.17;100.00;59696.56;5030892;28;51097;-60
2021/06/15 10:41:02;;;;;;;;;9.75;9.50;;;;;-147.17;100.00;59696.56;5029373;28;51052;-60
2021/06/15 10:43:51;;;;;;;;;11.75;11.00;;;;;-147.17;100.00;59696.56;5029604;28;51137;-60
2021/06/15 10:46:19;;;;;;;;;10.75;10.75;;;;;-147.17;100.00;59696.56;5023411;28;51226;-61
2021/06/15 10:48:55;;;;;;;;;9.25;9.25;;;;;-147.17;100.00;59696.56;5030691;28;51201;-62
2021/06/15 10:51:25;;;;;;;;;10.00;10.00;;;;;-147.17;100.00;59696.56;5031678;28;51110;-61
2021/06/15 10:53:51;;;;;;;;;10.25;10.25;;;;;-147.17;100.00;59696.56;5029489;28;50995;-61
2021/06/15 10:56:20;;;;;;;;;11.25;10.50;;;;;-147.17;100.00;59696.56;5020016;28;50931;-61
2021/06/15 10:58:48;;;;;;;;;13.50;13.25;;;;;-147.17;100.00;59696.56;5029842;28;52944;-62
2021/06/15 11:01:13;;;;;;;;;11.25;11.25;;;;;-147.17;100.00;59696.56;5030342;28;50934;-60
2021/06/15 11:03:51;;;;;;;;;10.75;10.75;;;;;-147.17;100.00;59696.56;5031176;28;50911;-60